Time;durP1;ratioP1;P1;durP2;ratioP2;P2;SDS_P1;SDS_P2;PMS_P1;PMS_P2;Temp;Humidity;BMP_temperature;BMP_pressure;BME280_temperature;BME280_humidity;BME280_pressure;Samples;Min_cycle;Max_cycle;Signal;HPM_P1;HPM_P2
2023/12/23 00:01:05;;;;;;;12.68;1.52;;;;;;;-146.27;90.88;32993.78;5072675;28;20054;-70
2023/12/23 00:03:30;;;;;;;19.80;1.67;;;;;;;-146.27;90.73;32942.19;5076316;28;20377;-69
2023/12/23 00:05:55;;;;;;;13.10;2.10;;;;;;;-146.27;90.67;32946.16;5071208;28;20032;-69
2023/12/23 00:08:21;;;;;;;13.65;2.08;;;;;;;-146.27;90.58;32910.44;5085912;28;20118;-69
2023/12/23 00:10:46;;;;;;;16.42;2.83;;;;;;;-146.27;90.77;32962.03;5071604;28;20036;-70
2023/12/23 00:13:11;;;;;;;25.00;2.83;;;;;;;-146.27;90.88;32944.19;5068849;28;20040;-69
2023/12/23 00:15:37;;;;;;;20.80;3.30;;;;;;;-146.27;90.70;32942.19;5071511;28;20020;-70
2023/12/23 00:18:02;;;;;;;20.65;2.22;;;;;;;-146.27;90.62;32944.19;5084622;28;20027;-70
2023/12/23 00:20:28;;;;;;;9.90;1.38;;;;;;;-146.27;90.83;32926.31;5077893;28;20043;-71
2023/12/23 00:22:55;;;;;;;14.35;2.20;;;;;;;-146.27;91.48;33021.53;5078705;28;20237;-70
2023/12/23 00:25:21;;;;;;;14.60;2.38;;;;;;;-146.27;93.65;33031.47;5071116;28;20486;-70
2023/12/23 00:27:46;;;;;;;18.50;2.45;;;;;;;-146.27;94.02;32989.81;5068918;28;20024;-71
2023/12/23 00:30:13;;;;;;;19.63;2.95;;;;;;;-146.27;93.87;32944.19;5070674;28;20029;-70
2023/12/23 00:32:40;;;;;;;14.65;2.35;;;;;;;-146.27;93.57;32825.13;5073528;28;20036;-70
2023/12/23 00:35:07;;;;;;;17.27;2.70;;;;;;;-146.27;92.76;32848.94;5069470;28;20158;-70
2023/12/23 00:37:33;;;;;;;21.75;3.08;;;;;;;-146.27;92.65;32846.97;5071237;28;20043;-70
2023/12/23 00:39:58;;;;;;;23.55;2.40;;;;;;;-146.27;92.12;32835.06;5068323;28;20037;-70
2023/12/23 00:42:23;;;;;;;16.13;2.50;;;;;;;-146.27;91.65;32797.38;5070393;28;20115;-70
2023/12/23 00:44:49;;;;;;;23.75;3.22;;;;;;;-146.27;91.17;32751.75;5074064;28;20484;-70
2023/12/23 00:47:14;;;;;;;18.42;2.50;;;;;;;-146.27;90.40;32733.88;5070198;28;20109;-70
2023/12/23 00:49:40;;;;;;;13.50;1.85;;;;;;;-146.27;89.95;32656.50;5072078;28;20054;-70
2023/12/23 00:52:06;;;;;;;14.65;2.75;;;;;;;-146.27;90.77;32747.78;5070421;28;20028;-70
2023/12/23 00:54:31;;;;;;;21.73;2.33;;;;;;;-146.27;90.66;32714.03;5069835;28;20113;-70
2023/12/23 00:56:57;;;;;;;18.27;2.38;;;;;;;-146.27;90.51;32733.88;5068277;28;20082;-70
2023/12/23 00:59:22;;;;;;;16.17;2.42;;;;;;;-146.27;90.14;32716.03;5070678;28;20032;-71
2023/12/23 01:01:48;;;;;;;8.30;1.42;;;;;;;-146.27;90.12;32751.75;5068333;28;20044;-71
2023/12/23 01:04:13;;;;;;;16.30;3.00;;;;;;;-146.27;90.10;32680.31;5076117;28;20467;-71
2023/12/23 01:06:38;;;;;;;16.83;3.00;;;;;;;-146.27;89.84;32666.44;5077809;28;20024;-70
2023/12/23 01:09:04;;;;;;;17.25;2.83;;;;;;;-146.27;90.01;32704.13;5068774;28;20025;-70
2023/12/23 01:11:29;;;;;;;15.55;2.70;;;;;;;-146.27;90.06;32660.47;5068649;28;20026;-70
2023/12/23 01:13:55;;;;;;;13.63;2.75;;;;;;;-146.27;91.92;32809.28;5066291;28;20021;-70
2023/12/23 01:16:20;;;;;;;16.23;3.33;;;;;;;-146.27;91.67;32700.16;5070925;28;20031;-69
2023/12/23 01:18:46;;;;;;;9.88;2.33;;;;;;;-146.27;91.36;32747.78;5069583;28;20036;-71
2023/12/23 01:21:11;;;;;;;8.95;2.22;;;;;;;-146.27;91.91;32773.56;5069974;28;20028;-69
2023/12/23 01:23:37;;;;;;;16.67;2.40;;;;;;;-146.27;92.23;32823.16;5069874;28;20025;-70
2023/12/23 01:26:02;;;;;;;10.45;1.90;;;;;;;-146.27;91.35;32712.06;5068547;28;20098;-70
2023/12/23 01:28:28;;;;;;;16.15;1.92;;;;;;;-146.27;91.96;32805.31;5065185;28;20443;-70
2023/12/23 01:30:53;;;;;;;13.60;1.88;;;;;;;-146.27;91.50;32819.19;5068486;28;20039;-70
2023/12/23 01:33:18;;;;;;;7.93;1.52;;;;;;;-146.27;90.97;32815.22;5067305;28;20016;-70
2023/12/23 01:35:44;;;;;;;10.10;1.75;;;;;;;-146.27;91.03;32819.19;5069596;28;20097;-72
2023/12/23 01:38:09;;;;;;;8.35;1.27;;;;;;;-146.27;91.08;32839.03;5068384;28;20073;-73
2023/12/23 01:40:35;;;;;;;9.70;1.92;;;;;;;-146.27;92.46;32906.47;5067580;28;20021;-70
2023/12/23 01:43:01;;;;;;;9.82;2.22;;;;;;;-146.27;93.21;32898.53;5076586;28;20039;-70
2023/12/23 01:45:26;;;;;;;18.65;2.88;;;;;;;-146.27;92.88;32850.94;5068550;28;20033;-70
2023/12/23 01:47:52;;;;;;;14.75;2.20;;;;;;;-146.27;93.12;32815.22;5069975;28;20025;-69
2023/12/23 01:50:21;;;;;;;12.35;2.10;;;;;;;-146.27;93.56;32858.88;5068036;28;20028;-70
2023/12/23 01:52:49;;;;;;;16.92;2.25;;;;;;;-146.27;92.61;32783.47;5068856;28;20392;-71
2023/12/23 01:55:14;;;;;;;26.80;2.70;;;;;;;-146.27;92.97;32763.63;5069122;28;20511;-71
2023/12/23 01:57:41;;;;;;;18.92;3.50;;;;;;;-146.27;92.21;32831.09;5066775;28;20064;-71
2023/12/23 02:00:07;;;;;;;16.92;3.35;;;;;;;-146.27;92.09;32886.63;5066993;28;20028;-71
2023/12/23 02:02:38;;;;;;;7.43;2.10;;;;;;;-146.27;91.12;32837.03;5067492;28;20039;-70
2023/12/23 02:05:04;;;;;;;11.40;2.83;;;;;;;-146.27;92.63;32884.66;5069799;28;20020;-70
2023/12/23 02:07:30;;;;;;;17.15;2.00;;;;;;;-146.27;92.58;32811.25;5069661;28;20031;-70
2023/12/23 02:09:56;;;;;;;12.48;2.25;;;;;;;-146.27;92.31;32779.50;5067981;28;20024;-69
2023/12/23 02:12:31;;;;;;;16.38;2.28;;;;;;;-146.27;93.06;32846.97;5068668;28;20070;-69
2023/12/23 02:15:09;;;;;;;19.15;2.20;;;;;;;-146.27;93.11;32819.19;5068143;28;20098;-70
2023/12/23 02:17:35;;;;;;;6.20;1.67;;;;;;;-146.27;92.74;32815.22;5070825;28;20028;-70
2023/12/23 02:20:00;;;;;;;16.73;2.67;;;;;;;-146.27;92.37;32813.25;5068778;28;20491;-71
2023/12/23 02:22:26;;;;;;;13.88;2.10;;;;;;;-146.27;92.75;32807.28;5068177;28;20036;-71
2023/12/23 02:24:51;;;;;;;9.48;2.08;;;;;;;-146.27;92.13;32741.81;5068977;28;20472;-71
2023/12/23 02:27:22;;;;;;;14.20;2.20;;;;;;;-146.27;91.74;32787.44;5063584;28;20016;-71
2023/12/23 02:29:48;;;;;;;28.90;4.13;;;;;;;-146.27;91.11;32833.06;5069527;28;20491;-71
2023/12/23 02:32:16;;;;;;;17.77;2.92;;;;;;;-146.27;90.45;32723.97;5068634;28;20024;-71
2023/12/23 02:34:41;;;;;;;14.27;1.85;;;;;;;-146.27;90.12;32735.88;5067277;28;20028;-71
2023/12/23 02:37:07;;;;;;;16.17;1.80;;;;;;;-146.27;89.65;32751.75;5068737;28;20127;-71
2023/12/23 02:39:32;;;;;;;17.45;1.98;;;;;;;-146.27;88.68;32700.16;5075512;28;20029;-71
2023/12/23 02:41:58;;;;;;;20.42;1.65;;;;;;;-146.27;88.67;32723.97;5069972;28;20028;-71
2023/12/23 02:44:23;;;;;;;18.05;2.33;;;;;;;-146.27;88.56;32739.84;5068440;28;20077;-71
2023/12/23 02:46:48;;;;;;;12.10;2.15;;;;;;;-146.27;88.05;32688.25;5070956;28;20070;-71
2023/12/23 02:49:14;;;;;;;16.75;2.22;;;;;;;-146.27;87.59;32674.38;5070425;28;20052;-71
2023/12/23 02:51:39;;;;;;;13.60;1.80;;;;;;;-146.27;87.51;32692.22;5068406;28;20039;-71
2023/12/23 02:54:04;;;;;;;11.57;1.50;;;;;;;-146.27;86.75;32553.34;5068561;28;20095;-71
2023/12/23 02:56:30;;;;;;;19.88;2.55;;;;;;;-146.27;87.00;32708.09;5069359;28;20489;-71
2023/12/23 02:58:56;;;;;;;16.17;1.80;;;;;;;-146.27;87.40;32725.94;5068163;28;20349;-70
2023/12/23 03:01:21;;;;;;;11.48;2.10;;;;;;;-146.27;87.35;32664.44;5068756;28;20032;-70
2023/12/23 03:03:47;;;;;;;13.23;2.90;;;;;;;-146.27;86.22;32591.06;5068944;28;20430;-71
2023/12/23 03:06:15;;;;;;;11.25;2.38;;;;;;;-146.27;86.67;32600.97;5066184;28;20020;-70
2023/12/23 03:08:41;;;;;;;21.50;2.15;;;;;;;-146.27;86.17;32569.22;5068629;28;20383;-70
2023/12/23 03:11:07;;;;;;;17.55;2.03;;;;;;;-146.27;86.66;32565.25;5068141;28;20107;-70
2023/12/23 03:13:33;;;;;;;15.50;2.33;;;;;;;-146.27;86.23;32589.06;5068290;28;20109;-71
2023/12/23 03:15:58;;;;;;;14.57;1.83;;;;;;;-146.27;86.07;32573.19;5069053;28;20060;-70
2023/12/23 03:18:24;;;;;;;14.60;2.28;;;;;;;-146.27;85.65;32573.19;5067701;28;20023;-69
2023/12/23 03:20:50;;;;;;;18.65;3.00;;;;;;;-146.27;85.83;32597.00;5067845;28;20024;-71
2023/12/23 03:23:16;;;;;;;6.65;1.52;;;;;;;-146.27;86.44;32696.19;5069669;28;20024;-72
2023/12/23 03:25:41;;;;;;;14.75;1.65;;;;;;;-146.27;85.74;32628.75;5068033;28;20025;-70
2023/12/23 03:28:07;;;;;;;14.70;1.60;;;;;;;-146.27;85.73;32581.13;5073514;28;20027;-70
2023/12/23 03:30:32;;;;;;;15.57;2.00;;;;;;;-146.27;85.56;32636.69;5079009;28;20036;-70
2023/12/23 03:32:57;;;;;;;9.55;2.00;;;;;;;-146.27;85.27;32634.69;5068956;28;20112;-70
2023/12/23 03:35:23;;;;;;;12.50;3.17;;;;;;;-146.27;86.19;32690.25;5068276;28;20055;-70
2023/12/23 03:37:48;;;;;;;12.55;2.10;;;;;;;-146.27;85.18;32600.97;5077124;28;20032;-71
2023/12/23 03:40:14;;;;;;;13.70;2.17;;;;;;;-146.27;85.23;32593.03;5075522;28;20020;-71
2023/12/23 03:42:40;;;;;;;20.13;1.88;;;;;;;-146.27;85.79;32664.44;5071287;28;20071;-71
2023/12/23 03:45:06;;;;;;;20.65;2.42;;;;;;;-146.27;85.70;32648.56;5071273;28;20488;-70
2023/12/23 03:47:32;;;;;;;14.23;2.03;;;;;;;-146.27;85.61;32624.78;5072577;28;20021;-70
2023/12/23 03:49:57;;;;;;;14.13;2.53;;;;;;;-146.27;85.78;32640.66;5071897;28;20078;-71
2023/12/23 03:52:23;;;;;;;24.55;2.42;;;;;;;-146.27;84.89;32565.25;5066037;28;20025;-71
2023/12/23 03:54:48;;;;;;;12.48;2.08;;;;;;;-146.27;84.83;32632.72;5072391;28;20382;-71
2023/12/23 03:57:13;;;;;;;16.50;2.17;;;;;;;-146.27;84.42;32565.25;5071452;28;20178;-71
2023/12/23 03:59:39;;;;;;;16.13;2.15;;;;;;;-146.27;84.55;32593.03;5072187;28;20543;-71
2023/12/23 04:02:05;;;;;;;17.67;3.08;;;;;;;-146.27;84.80;32632.72;5072226;28;20055;-70
2023/12/23 04:04:32;;;;;;;6.40;1.15;;;;;;;-146.27;85.13;32718.00;5071072;28;20040;-70
2023/12/23 04:06:57;;;;;;;16.98;2.75;;;;;;;-146.27;84.39;32593.03;5069486;28;20028;-70
2023/12/23 04:09:23;;;;;;;16.15;2.85;;;;;;;-146.27;83.88;32587.09;5081234;28;20028;-71
2023/12/23 04:11:48;;;;;;;11.45;2.17;;;;;;;-146.27;84.08;32583.13;5071861;28;20060;-71
2023/12/23 04:14:13;;;;;;;16.85;2.20;;;;;;;-146.27;84.18;32650.56;5072538;28;20340;-71
2023/12/23 04:16:39;;;;;;;14.32;1.60;;;;;;;-146.27;83.80;32575.19;5073718;28;20494;-71
2023/12/23 04:19:04;;;;;;;13.45;2.30;;;;;;;-146.27;84.04;32642.63;5070219;28;20109;-70
2023/12/23 04:21:30;;;;;;;7.68;1.35;;;;;;;-146.27;84.53;32670.41;5071941;28;20547;-70
2023/12/23 04:23:55;;;;;;;15.73;2.05;;;;;;;-146.27;83.86;32608.91;5071767;28;20059;-71
2023/12/23 04:26:21;;;;;;;14.98;2.10;;;;;;;-146.27;84.08;32608.91;5083235;28;20044;-71
2023/12/23 04:28:47;;;;;;;12.68;2.15;;;;;;;-146.27;84.07;32577.16;5071350;28;20491;-70
2023/12/23 04:31:12;;;;;;;10.75;2.00;;;;;;;-146.27;83.85;32628.75;5071652;28;20064;-70
2023/12/23 04:33:37;;;;;;;15.38;2.28;;;;;;;-146.27;84.32;32644.63;5071347;28;20028;-70
2023/12/23 04:36:03;;;;;;;16.17;1.90;;;;;;;-146.27;84.09;32620.81;5069449;28;20025;-70
2023/12/23 04:38:28;;;;;;;17.85;2.38;;;;;;;-146.27;83.83;32626.75;5070806;28;20028;-71
2023/12/23 04:40:54;;;;;;;15.75;1.90;;;;;;;-146.27;83.78;32624.78;5075533;28;20032;-71
2023/12/23 04:43:19;;;;;;;13.95;1.88;;;;;;;-146.27;83.31;32559.31;5070049;28;20037;-71
2023/12/23 04:45:45;;;;;;;13.52;1.65;;;;;;;-146.27;83.39;32541.47;5080163;28;20028;-71
2023/12/23 04:48:10;;;;;;;13.00;2.28;;;;;;;-146.27;83.39;32642.63;5071232;28;20439;-70
2023/12/23 04:50:36;;;;;;;15.57;2.58;;;;;;;-146.27;83.17;32616.84;5072353;28;20050;-71
2023/12/23 04:53:01;;;;;;;9.65;2.45;;;;;;;-146.27;83.39;32595.03;5071169;28;20060;-70
2023/12/23 04:55:27;;;;;;;11.43;1.77;;;;;;;-146.27;83.34;32585.09;5082156;28;20048;-72
2023/12/23 04:57:52;;;;;;;11.20;1.50;;;;;;;-146.27;82.88;32557.31;5073045;28;20032;-70
2023/12/23 05:00:18;;;;;;;17.33;2.13;;;;;;;-146.27;82.55;32529.56;5074570;28;20464;-69
2023/12/23 05:02:43;;;;;;;13.23;2.15;;;;;;;-146.27;82.47;32495.84;5066967;28;20495;-70
2023/12/23 05:05:08;;;;;;;23.00;2.80;;;;;;;-146.27;82.39;32533.53;5066618;28;20029;-71
2023/12/23 05:07:34;;;;;;;17.58;2.47;;;;;;;-146.27;82.44;32555.34;5070898;28;20043;-70
2023/12/23 05:09:59;;;;;;;27.88;3.00;;;;;;;-146.27;82.96;32600.97;5068622;28;20057;-71
2023/12/23 05:12:25;;;;;;;19.00;2.25;;;;;;;-146.27;82.60;32585.09;5070267;28;20028;-70
2023/12/23 05:14:51;;;;;;;16.27;2.17;;;;;;;-146.27;82.58;32535.50;5070028;28;20042;-70
2023/12/23 05:17:16;;;;;;;12.85;1.98;;;;;;;-146.27;82.49;32523.59;5070095;28;20040;-70
2023/12/23 05:19:42;;;;;;;13.63;2.90;;;;;;;-146.27;82.91;32565.25;5064785;28;20031;-71
2023/12/23 05:22:08;;;;;;;13.05;1.92;;;;;;;-146.27;83.23;32622.78;5070239;28;20400;-71
2023/12/23 05:24:36;;;;;;;17.60;3.15;;;;;;;-146.27;83.15;32585.09;5064012;28;20039;-70
2023/12/23 05:27:01;;;;;;;19.55;2.17;;;;;;;-146.27;82.62;32533.53;5069719;28;20040;-71
2023/12/23 05:29:27;;;;;;;14.65;3.28;;;;;;;-146.27;82.90;32535.50;5067163;28;20028;-70
2023/12/23 05:31:52;;;;;;;11.30;2.83;;;;;;;-146.27;82.88;32622.78;5070738;28;20073;-71
2023/12/23 05:34:17;;;;;;;14.48;2.20;;;;;;;-146.27;82.65;32523.59;5071303;28;20109;-70
2023/12/23 05:36:44;;;;;;;11.38;2.03;;;;;;;-146.27;82.71;32567.25;5086795;28;20024;-70
2023/12/23 05:39:10;;;;;;;21.73;2.63;;;;;;;-146.27;82.15;32499.81;5090978;28;20061;-70
2023/12/23 05:41:35;;;;;;;14.68;2.10;;;;;;;-146.27;82.84;32616.84;5086680;28;20032;-70
2023/12/23 05:44:01;;;;;;;15.73;2.45;;;;;;;-146.27;83.04;32598.97;5068559;28;20071;-70
2023/12/23 05:46:26;;;;;;;13.40;2.08;;;;;;;-146.27;83.36;32579.16;5082589;28;20035;-70
2023/12/23 05:48:51;;;;;;;19.80;2.75;;;;;;;-146.27;83.40;32646.59;5079415;28;20020;-70
2023/12/23 05:51:17;;;;;;;9.85;1.88;;;;;;;-146.27;83.15;32587.09;5071406;28;20029;-70
2023/12/23 05:53:42;;;;;;;19.30;2.55;;;;;;;-146.27;83.12;32557.31;5083897;28;20101;-71
2023/12/23 05:56:08;;;;;;;19.98;4.40;;;;;;;-146.27;82.84;32531.53;5090546;28;20099;-70
2023/12/23 05:58:33;;;;;;;13.98;2.60;;;;;;;-146.27;83.21;32597.00;5083002;28;20099;-70
2023/12/23 06:00:59;;;;;;;13.70;2.78;;;;;;;-146.27;83.66;32589.06;5068144;28;20043;-70
2023/12/23 06:03:25;;;;;;;15.63;2.85;;;;;;;-146.27;82.63;32537.50;5069052;28;20032;-70
2023/12/23 06:05:50;;;;;;;13.98;2.47;;;;;;;-146.27;83.39;32565.25;5069206;28;20048;-71
2023/12/23 06:08:15;;;;;;;19.48;3.25;;;;;;;-146.27;82.83;32489.88;5070441;28;20090;-70
2023/12/23 06:10:41;;;;;;;18.33;3.25;;;;;;;-146.27;83.10;32553.34;5069947;28;20403;-70
2023/12/23 06:13:06;;;;;;;16.77;3.35;;;;;;;-146.27;83.75;32632.72;5068480;28;20465;-71
2023/12/23 06:15:31;;;;;;;14.90;2.55;;;;;;;-146.27;83.02;32481.94;5070606;28;20094;-71
2023/12/23 06:17:57;;;;;;;17.50;3.15;;;;;;;-146.27;83.50;32529.56;5067847;28;20017;-70
2023/12/23 06:20:22;;;;;;;23.80;3.60;;;;;;;-146.27;82.79;32521.63;5070012;28;20451;-69
2023/12/23 06:22:48;;;;;;;23.17;3.47;;;;;;;-146.27;83.85;32589.06;5068979;28;20383;-70
2023/12/23 06:25:13;;;;;;;16.88;3.20;;;;;;;-146.27;83.04;32477.97;5069530;28;20052;-70
2023/12/23 06:27:38;;;;;;;21.95;2.95;;;;;;;-146.27;82.74;32519.63;5069923;28;20032;-69
2023/12/23 06:30:04;;;;;;;18.80;2.25;;;;;;;-146.27;82.85;32485.91;5069595;28;20032;-71
2023/12/23 06:32:30;;;;;;;14.43;2.33;;;;;;;-146.27;83.22;32589.06;5065932;28;20028;-70
2023/12/23 06:34:55;;;;;;;16.05;2.42;;;;;;;-146.27;82.78;32513.69;5070084;28;20047;-70
2023/12/23 06:37:20;;;;;;;17.90;2.53;;;;;;;-146.27;83.32;32597.00;5070057;28;20111;-70
2023/12/23 06:39:46;;;;;;;9.00;1.65;;;;;;;-146.27;82.93;32567.25;5072111;28;20563;-71
2023/12/23 06:42:11;;;;;;;16.23;2.22;;;;;;;-146.27;83.12;32608.91;5064851;28;20392;-70
2023/12/23 06:44:36;;;;;;;13.07;2.08;;;;;;;-146.27;82.06;32489.88;5070883;28;20388;-70
2023/12/23 06:47:02;;;;;;;16.27;3.05;;;;;;;-146.27;82.72;32569.22;5068924;28;20492;-71
2023/12/23 06:49:27;;;;;;;19.85;2.45;;;;;;;-146.27;82.80;32483.94;5086045;28;20063;-71
2023/12/23 06:51:54;;;;;;;13.43;2.92;;;;;;;-146.27;83.84;32620.81;5072184;28;20474;-71
2023/12/23 06:54:19;;;;;;;13.10;2.45;;;;;;;-146.27;83.06;32541.47;5069175;28;20049;-70
2023/12/23 06:56:44;;;;;;;20.38;2.38;;;;;;;-146.27;83.60;32636.69;5077360;28;20051;-71
2023/12/23 06:59:12;;;;;;;13.18;2.53;;;;;;;-146.27;83.73;32575.19;5062670;28;20106;-70
2023/12/23 07:01:39;;;;;;;17.13;2.40;;;;;;;-146.27;83.24;32561.28;5067112;28;20035;-71
2023/12/23 07:04:06;;;;;;;17.20;3.13;;;;;;;-146.27;83.72;32573.19;5069553;28;20024;-70
2023/12/23 07:06:32;;;;;;;11.95;2.65;;;;;;;-146.27;83.17;32517.66;5069291;28;20033;-71
2023/12/23 07:08:57;;;;;;;10.23;1.75;;;;;;;-146.27;83.04;32549.38;5070512;28;20442;-71
2023/12/23 07:11:23;;;;;;;17.45;2.42;;;;;;;-146.27;83.54;32624.78;5068764;28;20024;-71
2023/12/23 07:13:50;;;;;;;12.77;2.05;;;;;;;-146.27;82.85;32573.19;5074329;28;20016;-70
2023/12/23 07:16:16;;;;;;;9.18;2.63;;;;;;;-146.27;82.96;32624.78;5072596;28;20436;-71
2023/12/23 07:18:41;;;;;;;12.77;2.28;;;;;;;-146.27;83.03;32573.19;5072916;28;20062;-72
2023/12/23 07:21:07;;;;;;;10.70;1.33;;;;;;;-146.27;82.55;32547.41;5067312;28;20030;-71
2023/12/23 07:23:32;;;;;;;18.30;3.03;;;;;;;-146.27;81.72;32483.94;5066866;28;20111;-70
2023/12/23 07:25:57;;;;;;;15.18;2.17;;;;;;;-146.27;82.07;32549.38;5067600;28;20052;-71
2023/12/23 07:28:23;;;;;;;11.93;2.40;;;;;;;-146.27;81.97;32521.63;5064430;28;20068;-71
2023/12/23 07:30:48;;;;;;;11.75;2.03;;;;;;;-146.27;81.84;32521.63;5067468;28;20410;-70
2023/12/23 07:33:13;;;;;;;20.88;3.25;;;;;;;-146.27;82.06;32535.50;5063820;28;20039;-71
2023/12/23 07:35:39;;;;;;;16.70;2.28;;;;;;;-146.27;81.65;32495.84;5062196;28;20119;-71
2023/12/23 07:38:05;;;;;;;13.80;3.03;;;;;;;-146.27;81.28;32438.31;5070055;28;20437;-71
2023/12/23 07:40:31;;;;;;;11.75;2.38;;;;;;;-146.27;81.72;32511.69;5068157;28;20028;-70
2023/12/23 07:42:56;;;;;;;13.35;2.30;;;;;;;-146.27;82.00;32608.91;5072896;28;20028;-71
2023/12/23 07:45:23;;;;;;;23.80;2.30;;;;;;;-146.27;80.74;32452.19;5072227;28;20056;-72
2023/12/23 07:47:49;;;;;;;19.02;3.28;;;;;;;-146.27;80.91;32406.56;5057712;28;20456;-71
2023/12/23 07:50:14;;;;;;;10.82;1.85;;;;;;;-146.27;81.30;32448.22;5070054;28;20085;-71
2023/12/23 07:52:39;;;;;;;17.15;2.78;;;;;;;-146.27;80.89;32470.03;5072770;28;20024;-71
2023/12/23 07:55:06;;;;;;;17.85;3.13;;;;;;;-146.27;81.51;32476.00;5073043;28;20036;-70
2023/12/23 07:57:32;;;;;;;24.25;3.03;;;;;;;-146.27;82.36;32577.16;5070593;28;20033;-71
2023/12/23 07:59:57;;;;;;;13.60;2.22;;;;;;;-146.27;81.63;32458.13;5076775;28;20039;-71
2023/12/23 08:02:22;;;;;;;11.32;1.98;;;;;;;-146.27;81.54;32485.91;5069491;28;20779;-71
2023/12/23 08:04:48;;;;;;;15.35;2.28;;;;;;;-146.27;81.11;32430.38;5060094;28;20487;-70
2023/12/23 08:07:13;;;;;;;14.90;2.53;;;;;;;-146.27;82.00;32567.25;5070309;28;20423;-71
2023/12/23 08:09:39;;;;;;;11.07;2.35;;;;;;;-146.27;82.08;32513.69;5071278;28;20525;-71
2023/12/23 08:12:05;;;;;;;7.22;2.20;;;;;;;-146.27;82.51;32549.38;5072165;28;20547;-71
2023/12/23 08:14:30;;;;;;;14.10;2.00;;;;;;;-146.27;82.42;32458.13;5073442;28;20036;-69
2023/12/23 08:16:55;;;;;;;14.82;2.03;;;;;;;-146.27;83.03;32531.53;5068211;28;20158;-70
2023/12/23 08:19:21;;;;;;;16.67;2.47;;;;;;;-146.27;82.12;32386.72;5066853;28;20116;-71
2023/12/23 08:21:46;;;;;;;8.45;1.90;;;;;;;-146.27;82.57;32545.44;5062335;28;20044;-70
2023/12/23 08:24:13;;;;;;;9.02;1.98;;;;;;;-146.27;83.86;32561.28;5059906;28;20024;-70
2023/12/23 08:26:38;;;;;;;17.52;1.83;;;;;;;-146.27;83.34;32470.03;5071042;28;20997;-71
2023/12/23 08:29:04;;;;;;;13.23;1.90;;;;;;;-146.27;84.18;32589.06;5068844;28;20027;-70
2023/12/23 08:31:29;;;;;;;17.15;2.45;;;;;;;-146.27;84.10;32537.50;5068125;28;20020;-71
2023/12/23 08:33:55;;;;;;;12.90;2.15;;;;;;;-146.27;84.16;32517.66;5067510;28;20032;-70
2023/12/23 08:36:20;;;;;;;12.13;1.73;;;;;;;-146.27;84.23;32493.84;5072252;28;20107;-70
2023/12/23 08:38:45;;;;;;;14.73;2.15;;;;;;;-146.27;84.12;32565.25;5067662;28;20028;-73
2023/12/23 08:41:11;;;;;;;22.10;2.10;;;;;;;-146.27;83.85;32573.19;5066875;28;20058;-71
2023/12/23 08:43:36;;;;;;;16.75;2.75;;;;;;;-146.27;83.83;32573.19;5077097;28;20016;-69
2023/12/23 08:46:01;;;;;;;22.02;2.42;;;;;;;-146.27;83.28;32483.94;5071671;28;20025;-70
2023/12/23 08:48:27;;;;;;;14.85;2.83;;;;;;;-146.27;82.81;32479.97;5068678;28;20073;-71
2023/12/23 08:50:53;;;;;;;20.50;2.00;;;;;;;-146.27;82.87;32402.59;5080327;28;20029;-71
2023/12/23 08:53:19;;;;;;;12.75;2.38;;;;;;;-146.27;83.26;32543.44;5066596;28;20039;-71
2023/12/23 08:55:44;;;;;;;14.07;2.70;;;;;;;-146.27;83.32;32583.13;5066989;28;20020;-72
2023/12/23 08:58:16;;;;;;;11.95;1.83;;;;;;;-146.27;82.82;32450.22;5070888;28;20024;-70
2023/12/23 09:00:41;;;;;;;16.98;2.38;;;;;;;-146.27;82.91;32466.06;5066083;28;20545;-70
2023/12/23 09:03:07;;;;;;;10.45;2.15;;;;;;;-146.27;83.12;32472.03;5067099;28;20028;-69
2023/12/23 09:05:32;;;;;;;17.30;2.15;;;;;;;-146.27;82.74;32422.44;5071389;28;20364;-70
2023/12/23 09:07:58;;;;;;;15.65;1.95;;;;;;;-146.27;82.32;32432.34;5065340;28;21945;-68
2023/12/23 09:10:23;;;;;;;16.65;3.75;;;;;;;-146.27;82.50;32517.66;5067506;28;20032;-71
2023/12/23 09:12:49;;;;;;;12.60;2.33;;;;;;;-146.27;81.66;32362.94;5070147;28;20035;-70
2023/12/23 09:15:14;;;;;;;14.93;2.42;;;;;;;-146.27;82.38;32460.13;5071610;28;20380;-70
2023/12/23 09:17:39;;;;;;;18.63;2.67;;;;;;;-146.27;82.16;32454.16;5071634;28;20036;-70
2023/12/23 09:20:05;;;;;;;10.57;1.75;;;;;;;-146.27;81.64;32384.75;5070851;28;20025;-71
2023/12/23 09:22:31;;;;;;;22.23;2.00;;;;;;;-146.27;81.33;32378.78;5071643;28;20031;-71
2023/12/23 09:24:56;;;;;;;12.10;2.33;;;;;;;-146.27;81.29;32343.09;5070243;28;20159;-70
2023/12/23 09:27:23;;;;;;;9.23;1.65;;;;;;;-146.27;81.77;32438.31;5077355;28;20040;-68
2023/12/23 09:29:48;;;;;;;11.32;2.20;;;;;;;-146.27;81.73;32428.38;5079434;28;20035;-70
2023/12/23 09:32:13;;;;;;;10.77;1.95;;;;;;;-146.27;80.47;32356.97;5080587;28;20032;-70
2023/12/23 09:34:41;;;;;;;20.58;2.38;;;;;;;-146.27;80.35;32319.28;5061272;28;20123;-69
2023/12/23 09:37:06;;;;;;;14.60;1.63;;;;;;;-146.27;81.21;32426.41;5071385;28;20028;-70
2023/12/23 09:39:32;;;;;;;15.43;2.00;;;;;;;-146.27;80.61;32333.16;5070229;28;20020;-70
2023/12/23 09:41:59;;;;;;;12.00;1.95;;;;;;;-146.27;80.40;32315.31;5069855;28;20032;-70
2023/12/23 09:44:27;;;;;;;11.55;2.05;;;;;;;-146.27;80.58;32390.69;5069767;28;20028;-70
2023/12/23 09:46:54;;;;;;;10.75;1.52;;;;;;;-146.27;80.38;32412.50;5067858;28;20048;-69
2023/12/23 09:49:20;;;;;;;17.98;1.90;;;;;;;-146.27;79.56;32291.50;5064986;28;20020;-71
2023/12/23 09:51:47;;;;;;;16.38;2.25;;;;;;;-146.27;79.55;32323.25;5066141;28;20107;-70
2023/12/23 09:54:21;;;;;;;9.23;2.00;;;;;;;-146.27;79.39;32374.81;5067696;28;20467;-71
2023/12/23 09:56:50;;;;;;;;;;;;;;;-146.27;79.72;32368.88;5069831;28;20025;-69
2023/12/23 09:59:15;;;;;;;13.05;2.50;;;;;;;-146.27;79.94;32392.69;5069458;28;19916;-70
2023/12/23 10:01:41;;;;;;;11.90;1.48;;;;;;;-146.27;79.16;32315.31;5066034;28;20086;-69
2023/12/23 10:04:06;;;;;;;16.00;2.15;;;;;;;-146.27;78.58;32315.31;5067742;28;20530;-69
2023/12/23 10:06:35;;;;;;;17.67;2.22;;;;;;;-146.27;79.21;32335.16;5065418;28;20028;-70
2023/12/23 10:09:00;;;;;;;9.88;1.95;;;;;;;-146.27;79.21;32331.19;5065499;28;20051;-71
2023/12/23 10:11:26;;;;;;;12.90;1.75;;;;;;;-146.27;79.09;32327.22;5067679;28;20063;-70
2023/12/23 10:13:52;;;;;;;12.13;1.38;;;;;;;-146.27;78.55;32303.41;5066696;28;20052;-70
2023/12/23 10:16:18;;;;;;;13.65;1.77;;;;;;;-146.27;77.73;32263.75;5064504;28;20078;-71
2023/12/23 10:18:46;;;;;;;8.98;1.58;;;;;;;-146.27;77.78;32325.25;5065784;28;20473;-71
2023/12/23 10:21:11;;;;;;;8.20;2.05;;;;;;;-146.27;77.09;32216.13;5066725;28;20025;-70
2023/12/23 10:23:37;;;;;;;10.90;1.60;;;;;;;-146.27;76.85;32263.75;5065375;28;20034;-71
2023/12/23 10:26:03;;;;;;;11.48;1.80;;;;;;;-146.27;76.33;32164.56;5067063;28;20038;-69
2023/12/23 10:28:29;;;;;;;12.95;1.70;;;;;;;-146.27;76.85;32188.38;5067645;28;20488;-71
2023/12/23 10:30:59;;;;;;;11.25;1.60;;;;;;;-146.27;76.65;32146.72;5069201;28;20041;-72
2023/12/23 10:33:29;;;;;;;8.52;1.50;;;;;;;-146.27;76.35;32198.28;5067408;28;20029;-71
2023/12/23 10:35:57;;;;;;;5.78;1.48;;;;;;;-146.27;76.85;32220.09;5067350;28;20052;-72
2023/12/23 10:38:26;;;;;;;12.25;1.75;;;;;;;-146.27;76.49;32251.84;5065708;28;20085;-70
2023/12/23 10:41:24;;;;;;;10.65;1.92;;;;;;;-146.27;75.50;32105.06;5059618;28;20029;-71
2023/12/23 10:43:53;;;;;;;10.05;1.42;;;;;;;-146.27;76.22;32204.25;5062650;28;20036;-70
2023/12/23 10:46:20;;;;;;;19.38;2.30;;;;;;;-146.27;75.69;32136.78;5067009;28;20437;-71
2023/12/23 10:48:46;;;;;;;10.73;1.40;;;;;;;-146.27;75.58;32126.88;5072459;28;20035;-71
2023/12/23 10:51:15;;;;;;;6.93;1.50;;;;;;;-146.27;75.54;32109.03;5074509;28;20027;-70
2023/12/23 10:53:41;;;;;;;11.93;2.00;;;;;;;-146.27;75.96;32114.97;5064807;28;20048;-69
2023/12/23 10:56:08;;;;;;;5.80;1.35;;;;;;;-146.27;75.69;32136.78;5073948;28;20036;-69
2023/12/23 10:58:35;;;;;;;11.18;1.48;;;;;;;-146.27;75.56;32081.25;5065151;28;20017;-70
2023/12/23 11:01:00;;;;;;;13.13;1.58;;;;;;;-146.27;75.69;32190.34;5079443;28;20028;-68
2023/12/23 11:03:29;;;;;;;7.30;1.45;;;;;;;-146.27;75.77;32188.38;5073567;28;20028;-69